Time;durP1;ratioP1;P1;durP2;ratioP2;P2;SDS_P1;SDS_P2;PMS_P1;PMS_P2;Temp;Humidity;BMP_temperature;BMP_pressure;BME280_temperature;BME280_humidity;BME280_pressure;Samples;Min_cycle;Max_cycle;Signal;HPM_P1;HPM_P2
2023/04/03 00:00:46;;;;;;;0.70;0.70;;;;;3.30;96586.00;;;;4993247;28;20212;-58
2023/04/03 00:03:14;;;;;;;1.20;1.20;;;;;3.30;96580.00;;;;4993399;28;20217;-58
2023/04/03 00:05:42;;;;;;;0.70;0.70;;;;;3.40;96582.00;;;;4995547;28;20558;-58
2023/04/03 00:08:09;;;;;;;0.80;0.80;;;;;3.40;96578.00;;;;4996894;28;20729;-58
2023/04/03 00:10:38;;;;;;;0.80;0.80;;;;;3.50;96588.00;;;;4996637;28;20197;-58
2023/04/03 00:13:07;;;;;;;0.70;0.70;;;;;3.50;96585.00;;;;4996781;28;20551;-62
2023/04/03 00:15:35;;;;;;;0.77;0.77;;;;;3.30;96587.00;;;;4996693;28;20222;-58
2023/04/03 00:18:03;;;;;;;0.93;0.93;;;;;3.20;96577.00;;;;4996494;28;20558;-58
2023/04/03 00:20:31;;;;;;;0.70;0.70;;;;;3.20;96582.00;;;;4996345;28;20252;-58
2023/04/03 00:22:58;;;;;;;1.37;1.27;;;;;3.30;96581.00;;;;4996212;28;20273;-58
2023/04/03 00:25:26;;;;;;;0.70;0.70;;;;;3.20;96585.00;;;;4996391;28;20800;-58
2023/04/03 00:27:55;;;;;;;1.00;1.00;;;;;3.20;96578.00;;;;4996549;28;20660;-58
2023/04/03 00:30:23;;;;;;;2.67;1.10;;;;;3.00;96570.00;;;;4996221;28;20248;-58
2023/04/03 00:32:51;;;;;;;0.80;0.80;;;;;3.10;96571.00;;;;4996384;28;20245;-58
2023/04/03 00:35:20;;;;;;;0.83;0.83;;;;;3.20;96577.00;;;;4996048;28;20206;-58
2023/04/03 00:37:48;;;;;;;0.77;0.77;;;;;3.20;96568.00;;;;4996102;28;20194;-57
2023/04/03 00:40:16;;;;;;;0.83;0.83;;;;;3.20;96579.00;;;;4996105;28;20189;-58
2023/04/03 00:42:46;;;;;;;0.77;0.77;;;;;3.00;96568.00;;;;4996204;28;20229;-57
2023/04/03 00:45:36;;;;;;;0.93;0.93;;;;;3.20;96568.00;;;;4996190;28;20197;-58
2023/04/03 00:48:06;;;;;;;1.00;1.00;;;;;3.00;96572.00;;;;4995897;28;20208;-58
2023/04/03 00:50:36;;;;;;;1.03;1.03;;;;;3.00;96571.00;;;;4996207;28;20181;-58
2023/04/03 00:53:04;;;;;;;0.60;0.60;;;;;3.10;96561.00;;;;4995894;28;20240;-59
2023/04/03 00:55:32;;;;;;;0.93;0.93;;;;;3.10;96565.00;;;;4995676;28;20214;-57
2023/04/03 00:58:01;;;;;;;1.00;1.00;;;;;3.10;96562.00;;;;4995651;28;20198;-57
2023/04/03 01:00:28;;;;;;;1.40;1.33;;;;;3.10;96568.00;;;;4995666;28;20202;-57
2023/04/03 01:02:57;;;;;;;0.97;0.97;;;;;3.00;96567.00;;;;4995472;28;20222;-57
2023/04/03 01:05:25;;;;;;;0.80;0.80;;;;;3.10;96563.00;;;;4995557;28;20190;-57
2023/04/03 01:07:53;;;;;;;1.33;1.23;;;;;3.00;96574.00;;;;4995452;28;20205;-57
2023/04/03 01:10:22;;;;;;;1.00;1.00;;;;;3.00;96576.00;;;;4995501;28;20275;-57
2023/04/03 01:12:51;;;;;;;0.63;0.63;;;;;3.00;96573.00;;;;4995385;28;20253;-57
2023/04/03 01:15:20;;;;;;;0.90;0.90;;;;;2.90;96577.00;;;;4995294;28;20198;-58
2023/04/03 01:17:50;;;;;;;0.90;0.90;;;;;2.90;96582.00;;;;4994343;28;20194;-56
2023/04/03 01:21:03;;;;;;;1.13;1.13;;;;;2.90;96577.00;;;;4995707;28;20205;-57
2023/04/03 01:23:53;;;;;;;0.90;0.87;;;;;3.00;96577.00;;;;4995058;28;20230;-57
2023/04/03 01:26:21;;;;;;;0.90;0.90;;;;;2.90;96580.00;;;;4995427;28;20190;-58
2023/04/03 01:28:48;;;;;;;0.70;0.70;;;;;2.70;96571.00;;;;4995798;28;20662;-58
2023/04/03 01:31:23;;;;;;;1.63;1.07;;;;;2.90;96580.00;;;;4995027;28;20209;-57
2023/04/03 01:33:52;;;;;;;0.83;0.83;;;;;3.00;96582.00;;;;4995386;28;20546;-59
2023/04/03 01:36:21;;;;;;;0.97;0.97;;;;;3.00;96571.00;;;;4994962;28;20210;-58
2023/04/03 01:38:49;;;;;;;0.70;0.70;;;;;3.00;96574.00;;;;4993604;28;20301;-57
2023/04/03 01:41:17;;;;;;;0.90;0.90;;;;;2.90;96578.00;;;;4995367;28;20204;-58
2023/04/03 01:43:45;;;;;;;1.00;1.00;;;;;3.00;96581.00;;;;4994830;28;20197;-57
2023/04/03 01:46:12;;;;;;;0.70;0.70;;;;;2.90;96580.00;;;;4994779;28;20200;-58
2023/04/03 01:48:40;;;;;;;0.97;0.97;;;;;2.90;96583.00;;;;4994988;28;20202;-57
2023/04/03 01:51:08;;;;;;;1.03;0.93;;;;;2.90;96582.00;;;;4995211;28;20194;-58
2023/04/03 01:53:36;;;;;;;1.57;1.47;;;;;2.90;96578.00;;;;4994735;28;20194;-58
2023/04/03 01:56:03;;;;;;;0.70;0.70;;;;;2.90;96576.00;;;;4994510;28;20221;-57
2023/04/03 01:58:31;;;;;;;1.03;1.03;;;;;3.00;96581.00;;;;4994569;28;20201;-58
2023/04/03 02:00:58;;;;;;;1.30;1.30;;;;;2.90;96575.00;;;;4994694;28;20221;-57
2023/04/03 02:03:26;;;;;;;0.70;0.70;;;;;2.80;96586.00;;;;4994389;28;20225;-57
2023/04/03 02:05:53;;;;;;;2.63;1.07;;;;;2.80;96586.00;;;;4994714;28;20280;-57
2023/04/03 02:08:22;;;;;;;1.77;1.67;;;;;2.80;96586.00;;;;4994411;28;20202;-58
2023/04/03 02:10:49;;;;;;;0.97;0.97;;;;;2.80;96584.00;;;;4994662;28;20273;-59
2023/04/03 02:13:17;;;;;;;0.80;0.80;;;;;2.70;96583.00;;;;4994527;28;20685;-57
2023/04/03 02:15:45;;;;;;;1.37;1.27;;;;;2.70;96584.00;;;;4994178;28;20198;-57
2023/04/03 02:18:13;;;;;;;0.77;0.77;;;;;2.80;96589.00;;;;4994438;28;20197;-58
2023/04/03 02:20:40;;;;;;;0.90;0.90;;;;;2.80;96587.00;;;;4994253;28;20194;-58
2023/04/03 02:23:08;;;;;;;0.77;0.77;;;;;2.80;96588.00;;;;4993980;28;20594;-59
2023/04/03 02:25:36;;;;;;;0.83;0.83;;;;;2.80;96583.00;;;;4994448;28;20554;-58
2023/04/03 02:28:04;;;;;;;0.80;0.80;;;;;2.80;96582.00;;;;4993993;28;20210;-58
2023/04/03 02:30:31;;;;;;;1.00;1.00;;;;;2.80;96592.00;;;;4994087;28;20676;-58
2023/04/03 02:32:59;;;;;;;0.73;0.73;;;;;2.80;96581.00;;;;4994528;28;20218;-58
2023/04/03 02:35:26;;;;;;;0.93;0.93;;;;;2.80;96592.00;;;;4994041;28;20199;-58
2023/04/03 02:37:53;;;;;;;0.80;0.80;;;;;2.80;96588.00;;;;4994479;28;20214;-58
2023/04/03 02:40:21;;;;;;;0.67;0.67;;;;;2.80;96587.00;;;;4993973;28;20201;-58
2023/04/03 02:42:49;;;;;;;0.90;0.90;;;;;2.80;96577.00;;;;4993852;28;20724;-58
2023/04/03 02:45:17;;;;;;;1.20;1.13;;;;;2.70;96578.00;;;;4994190;28;20260;-58
2023/04/03 02:47:44;;;;;;;0.90;0.90;;;;;2.70;96579.00;;;;4992629;28;20221;-57
2023/04/03 02:50:11;;;;;;;0.70;0.70;;;;;2.70;96584.00;;;;4993790;28;20198;-57
2023/04/03 02:52:39;;;;;;;1.10;1.10;;;;;2.70;96592.00;;;;4993743;28;20214;-58
2023/04/03 02:55:07;;;;;;;0.87;0.87;;;;;2.70;96586.00;;;;4993772;28;20190;-57
2023/04/03 02:57:35;;;;;;;1.20;1.10;;;;;2.70;96580.00;;;;4993658;28;20585;-58
2023/04/03 03:00:05;;;;;;;0.90;0.90;;;;;2.70;96573.00;;;;4994003;28;20213;-58
2023/04/03 03:02:32;;;;;;;0.60;0.60;;;;;2.70;96580.00;;;;4993610;28;20331;-58
2023/04/03 03:04:59;;;;;;;1.07;1.07;;;;;2.70;96580.00;;;;4993738;28;20408;-57
2023/04/03 03:07:27;;;;;;;0.97;0.97;;;;;2.80;96583.00;;;;4992493;28;20288;-57
2023/04/03 03:09:54;;;;;;;2.30;1.20;;;;;2.70;96580.00;;;;4993965;28;20222;-57
2023/04/03 03:12:23;;;;;;;1.30;1.20;;;;;2.60;96570.00;;;;4993779;28;20241;-57
2023/04/03 03:14:50;;;;;;;1.07;1.07;;;;;2.80;96572.00;;;;4993564;28;20297;-58
2023/04/03 03:17:19;;;;;;;1.63;1.53;;;;;2.60;96569.00;;;;4993453;28;20221;-58
2023/04/03 03:19:47;;;;;;;0.70;0.70;;;;;2.60;96575.00;;;;4993587;28;20190;-57
2023/04/03 03:22:14;;;;;;;0.80;0.80;;;;;2.70;96576.00;;;;4993477;28;20229;-57
2023/04/03 03:24:41;;;;;;;1.10;1.10;;;;;2.70;96572.00;;;;4993615;28;20250;-58
2023/04/03 03:27:09;;;;;;;1.13;1.13;;;;;2.70;96570.00;;;;4993981;28;20197;-58
2023/04/03 03:29:36;;;;;;;1.43;1.27;;;;;2.60;96575.00;;;;4993489;28;20197;-58
2023/04/03 03:32:04;;;;;;;0.63;0.63;;;;;2.60;96568.00;;;;4993588;28;20221;-58
2023/04/03 03:34:33;;;;;;;0.70;0.70;;;;;2.60;96558.00;;;;4993829;28;20626;-57
2023/04/03 03:37:00;;;;;;;0.83;0.83;;;;;2.60;96563.00;;;;4992139;28;20257;-57
2023/04/03 03:39:28;;;;;;;1.23;0.97;;;;;2.60;96570.00;;;;4993831;28;20198;-58
2023/04/03 03:41:55;;;;;;;0.80;0.80;;;;;2.50;96572.00;;;;4997152;28;20210;-58
2023/04/03 03:44:23;;;;;;;0.93;0.93;;;;;2.50;96571.00;;;;4997362;28;20202;-57
2023/04/03 03:46:50;;;;;;;1.10;1.10;;;;;2.50;96579.00;;;;4997046;28;20209;-58
2023/04/03 03:49:17;;;;;;;0.70;0.70;;;;;2.50;96569.00;;;;4997328;28;20209;-58
2023/04/03 03:51:46;;;;;;;2.53;1.20;;;;;2.60;96572.00;;;;4997205;28;20623;-58
2023/04/03 03:54:14;;;;;;;0.63;0.63;;;;;2.60;96568.00;;;;4997296;28;20198;-58
2023/04/03 03:56:42;;;;;;;1.33;1.03;;;;;2.60;96571.00;;;;4997019;28;20296;-58
2023/04/03 03:59:09;;;;;;;1.00;1.00;;;;;2.60;96571.00;;;;4995718;28;20198;-58
2023/04/03 04:01:36;;;;;;;0.60;0.60;;;;;2.60;96563.00;;;;4996786;28;20229;-59
2023/04/03 04:04:04;;;;;;;1.53;1.43;;;;;2.50;96573.00;;;;4996830;28;20206;-58
2023/04/03 04:06:31;;;;;;;1.23;1.23;;;;;2.50;96584.00;;;;4997254;28;20197;-58
2023/04/03 04:09:00;;;;;;;1.03;1.03;;;;;2.60;96580.00;;;;4996726;28;20194;-58
2023/04/03 04:11:28;;;;;;;1.73;1.63;;;;;2.60;96579.00;;;;4996622;28;20199;-58
2023/04/03 04:13:55;;;;;;;1.77;1.67;;;;;2.60;96582.00;;;;4996688;28;20253;-57
2023/04/03 04:16:22;;;;;;;3.30;2.57;;;;;2.60;96581.00;;;;4996338;28;20658;-58
2023/04/03 04:18:50;;;;;;;1.57;1.47;;;;;2.60;96580.00;;;;4995288;28;20198;-58
2023/04/03 04:21:17;;;;;;;1.30;1.30;;;;;2.60;96577.00;;;;4996398;28;20208;-58
2023/04/03 04:23:44;;;;;;;1.00;1.00;;;;;2.60;96578.00;;;;4996346;28;20282;-58
2023/04/03 04:26:13;;;;;;;0.93;0.93;;;;;2.60;96574.00;;;;4996304;28;20195;-58
2023/04/03 04:28:40;;;;;;;0.83;0.83;;;;;2.60;96580.00;;;;4996315;28;20197;-58
2023/04/03 04:31:08;;;;;;;0.90;0.90;;;;;2.60;96584.00;;;;4996268;28;20194;-59
2023/04/03 04:33:35;;;;;;;0.80;0.80;;;;;2.60;96586.00;;;;4996504;28;20220;-59
2023/04/03 04:36:03;;;;;;;1.03;1.03;;;;;2.60;96578.00;;;;4996209;28;20205;-58
2023/04/03 04:38:30;;;;;;;1.07;1.07;;;;;2.70;96570.00;;;;4996321;28;20225;-58
2023/04/03 04:40:57;;;;;;;1.23;1.23;;;;;2.60;96576.00;;;;4996146;28;20198;-57
2023/04/03 04:43:26;;;;;;;1.83;0.93;;;;;2.60;96578.00;;;;4995879;28;20225;-58
2023/04/03 04:46:02;;;;;;;0.90;0.90;;;;;2.60;96585.00;;;;4996128;28;20194;-57
2023/04/03 04:48:30;;;;;;;0.83;0.83;;;;;2.60;96581.00;;;;4996153;28;20186;-57
2023/04/03 04:50:57;;;;;;;1.40;1.30;;;;;2.70;96578.00;;;;4996337;28;20630;-57
2023/04/03 04:53:25;;;;;;;0.83;0.83;;;;;2.70;96576.00;;;;4995739;28;20759;-58
2023/04/03 04:55:52;;;;;;;1.23;1.23;;;;;2.70;96588.00;;;;4996789;28;20194;-58
2023/04/03 04:58:20;;;;;;;0.93;0.93;;;;;2.70;96575.00;;;;4995623;28;20288;-58
2023/04/03 05:00:49;;;;;;;2.23;2.03;;;;;2.80;96583.00;;;;4996146;28;20198;-58
2023/04/03 05:03:16;;;;;;;0.60;0.60;;;;;2.80;96586.00;;;;4995528;28;20720;-58
2023/04/03 05:05:44;;;;;;;1.20;1.20;;;;;2.80;96586.00;;;;4994343;28;20728;-58
2023/04/03 05:08:12;;;;;;;0.70;0.70;;;;;2.70;96593.00;;;;4995521;28;20269;-58
2023/04/03 05:10:40;;;;;;;0.70;0.70;;;;;2.80;96591.00;;;;4995958;28;20201;-57
2023/04/03 05:13:08;;;;;;;0.70;0.70;;;;;2.80;96605.00;;;;4994303;28;20638;-58
2023/04/03 05:15:35;;;;;;;1.00;1.00;;;;;2.70;96598.00;;;;4995336;28;20201;-57
2023/04/03 05:18:04;;;;;;;0.70;0.70;;;;;2.80;96604.00;;;;4995389;28;20225;-58
2023/04/03 05:20:32;;;;;;;1.00;1.00;;;;;2.80;96607.00;;;;4995819;28;20202;-58
2023/04/03 05:22:59;;;;;;;0.97;0.90;;;;;2.70;96597.00;;;;5043045;22;20227;-66
2023/04/03 05:25:27;;;;;;;1.03;1.03;;;;;2.80;96603.00;;;;5074359;28;20198;-67
2023/04/03 05:27:54;;;;;;;1.67;1.57;;;;;2.80;96608.00;;;;5074727;28;20191;-66
2023/04/03 05:30:21;;;;;;;0.70;0.70;;;;;2.90;96601.00;;;;5073972;28;20270;-67
2023/04/03 05:32:49;;;;;;;0.77;0.77;;;;;2.90;96606.00;;;;5074323;28;20617;-67
2023/04/03 05:35:18;;;;;;;0.70;0.70;;;;;2.90;96613.00;;;;5074454;28;20202;-67
2023/04/03 05:37:45;;;;;;;6.60;1.53;;;;;2.90;96610.00;;;;5074318;28;20694;-67
2023/04/03 05:40:13;;;;;;;0.90;0.90;;;;;2.90;96613.00;;;;5074240;28;20203;-67
2023/04/03 05:42:40;;;;;;;1.23;1.23;;;;;2.90;96604.00;;;;5074240;28;20215;-67
2023/04/03 05:45:08;;;;;;;1.27;1.27;;;;;2.90;96611.00;;;;5074210;28;20533;-67
2023/04/03 05:47:35;;;;;;;1.13;1.13;;;;;2.90;96613.00;;;;5074488;28;20183;-66
2023/04/03 05:50:03;;;;;;;0.83;0.83;;;;;3.00;96604.00;;;;5073992;28;20195;-67
2023/04/03 05:52:36;;;;;;;1.53;1.43;;;;;3.10;96616.00;;;;5074172;28;20219;-66
2023/04/03 05:55:03;;;;;;;1.00;1.00;;;;;3.10;96610.00;;;;5074286;28;20195;-66
2023/04/03 05:57:31;;;;;;;0.60;0.60;;;;;3.10;96610.00;;;;5074053;28;20272;-67
2023/04/03 05:59:58;;;;;;;1.10;1.00;;;;;3.20;96616.00;;;;5073667;28;20195;-66
2023/04/03 06:02:26;;;;;;;1.00;1.00;;;;;3.30;96613.00;;;;5073014;28;20211;-66
2023/04/03 06:04:54;;;;;;;1.17;1.17;;;;;3.30;96611.00;;;;5073638;28;20192;-67
2023/04/03 06:07:23;;;;;;;0.70;0.70;;;;;3.40;96612.00;;;;5073557;28;20226;-67
2023/04/03 06:09:52;;;;;;;1.30;1.20;;;;;3.40;96615.00;;;;5073485;28;20191;-67
2023/04/03 06:12:20;;;;;;;0.73;0.73;;;;;3.40;96613.00;;;;5073384;28;20207;-66
2023/04/03 06:14:48;;;;;;;0.80;0.80;;;;;3.40;96623.00;;;;5073767;28;20270;-67
2023/04/03 06:17:17;;;;;;;0.77;0.77;;;;;3.50;96625.00;;;;5073493;28;20238;-66
2023/04/03 06:19:45;;;;;;;0.80;0.80;;;;;3.60;96621.00;;;;5073259;28;20264;-67
2023/04/03 06:22:13;;;;;;;0.70;0.70;;;;;3.60;96619.00;;;;5071630;28;20235;-64
2023/04/03 06:24:40;;;;;;;0.90;0.90;;;;;3.70;96623.00;;;;5073098;28;20180;-59
2023/04/03 06:27:10;;;;;;;6.73;1.20;;;;;3.80;96626.00;;;;5060063;28;20206;-60
2023/04/03 06:29:38;;;;;;;0.87;0.87;;;;;3.90;96610.00;;;;5068430;28;20234;-63
2023/04/03 06:32:05;;;;;;;0.80;0.80;;;;;4.00;96624.00;;;;5069615;28;20689;-65
2023/04/03 06:34:33;;;;;;;0.70;0.70;;;;;3.90;96627.00;;;;5070663;28;20222;-64
2023/04/03 06:37:00;;;;;;;0.90;0.90;;;;;3.90;96619.00;;;;5070713;28;20191;-65
2023/04/03 06:39:28;;;;;;;1.27;1.20;;;;;3.80;96634.00;;;;5071036;28;20562;-65
2023/04/03 06:41:55;;;;;;;0.83;0.83;;;;;3.80;96631.00;;;;5071316;28;20195;-65
2023/04/03 06:44:24;;;;;;;1.03;1.03;;;;;3.60;96637.00;;;;5070888;28;20203;-66
2023/04/03 06:46:52;;;;;;;1.13;1.03;;;;;3.70;96634.00;;;;5071295;28;20203;-66
2023/04/03 06:49:20;;;;;;;0.70;0.70;;;;;3.50;96637.00;;;;5070537;28;20198;-66
2023/04/03 06:51:47;;;;;;;0.90;0.90;;;;;3.60;96645.00;;;;5071445;28;20269;-66
2023/04/03 06:54:14;;;;;;;0.90;0.90;;;;;3.70;96644.00;;;;5070317;28;20657;-65
2023/04/03 06:56:42;;;;;;;0.70;0.70;;;;;3.90;96646.00;;;;5069761;28;20221;-65
2023/04/03 06:59:11;;;;;;;0.80;0.80;;;;;3.90;96639.00;;;;5070887;28;20220;-66
2023/04/03 07:01:40;;;;;;;0.97;0.97;;;;;3.90;96645.00;;;;5070354;28;20277;-67
2023/04/03 07:04:08;;;;;;;1.07;1.07;;;;;4.00;96635.00;;;;5070678;28;20621;-66
2023/04/03 07:06:36;;;;;;;0.80;0.80;;;;;4.10;96644.00;;;;5071044;28;20237;-68
2023/04/03 07:09:03;;;;;;;1.47;1.37;;;;;4.20;96652.00;;;;5070304;28;20207;-64
2023/04/03 07:11:31;;;;;;;0.63;0.63;;;;;4.30;96648.00;;;;5071066;28;20192;-64
2023/04/03 07:13:58;;;;;;;1.30;0.97;;;;;4.60;96653.00;;;;5071750;28;20614;-64
2023/04/03 07:16:26;;;;;;;1.00;1.00;;;;;4.60;96650.00;;;;5073865;28;20620;-64
2023/04/03 07:18:54;;;;;;;0.90;0.90;;;;;4.80;96654.00;;;;5074278;28;20225;-64
2023/04/03 07:21:22;;;;;;;0.90;0.90;;;;;4.60;96660.00;;;;5075064;28;20537;-65
2023/04/03 07:23:49;;;;;;;1.20;1.10;;;;;4.80;96650.00;;;;5074048;28;20249;-65
2023/04/03 07:26:17;;;;;;;0.73;0.73;;;;;4.80;96651.00;;;;5074246;28;20211;-64
2023/04/03 07:28:47;;;;;;;1.83;1.47;;;;;4.80;96664.00;;;;5074455;28;20203;-65
2023/04/03 07:31:16;;;;;;;0.70;0.70;;;;;4.90;96662.00;;;;5074393;28;20202;-65
2023/04/03 07:33:44;;;;;;;1.33;1.30;;;;;4.90;96655.00;;;;5074123;28;20243;-64
2023/04/03 07:36:18;;;;;;;0.90;0.90;;;;;5.00;96669.00;;;;5074368;28;20206;-66
2023/04/03 07:38:46;;;;;;;0.97;0.97;;;;;5.20;96654.00;;;;5074155;28;20257;-65
2023/04/03 07:41:17;;;;;;;0.80;0.80;;;;;5.00;96665.00;;;;5074343;28;20203;-65
2023/04/03 07:43:45;;;;;;;0.60;0.60;;;;;5.20;96658.00;;;;5074600;28;20229;-65
2023/04/03 07:46:12;;;;;;;0.73;0.73;;;;;5.40;96662.00;;;;5074168;28;20222;-65
2023/04/03 07:48:40;;;;;;;0.80;0.80;;;;;5.30;96670.00;;;;5074538;28;20249;-65
2023/04/03 07:51:07;;;;;;;0.60;0.60;;;;;5.30;96676.00;;;;5073801;28;20561;-65
2023/04/03 07:53:36;;;;;;;1.47;1.37;;;;;5.00;96681.00;;;;5074323;28;20223;-65
2023/04/03 07:56:03;;;;;;;0.80;0.80;;;;;5.00;96674.00;;;;5073511;28;20195;-65
2023/04/03 07:58:31;;;;;;;1.03;1.03;;;;;5.40;96669.00;;;;5074380;28;20227;-65
2023/04/03 08:00:58;;;;;;;0.73;0.73;;;;;5.60;96678.00;;;;5072193;28;20202;-65
2023/04/03 08:03:26;;;;;;;1.67;1.33;;;;;5.40;96675.00;;;;5073791;28;20227;-65
2023/04/03 08:05:54;;;;;;;0.60;0.60;;;;;5.50;96675.00;;;;5073866;28;20278;-65
2023/04/03 08:08:24;;;;;;;1.20;1.20;;;;;5.10;96671.00;;;;5072759;28;20685;-67
2023/04/03 08:10:54;;;;;;;1.03;1.03;;;;;5.40;96677.00;;;;5071289;28;20238;-66
2023/04/03 08:13:22;;;;;;;0.90;0.90;;;;;5.70;96676.00;;;;5073206;28;20219;-65
2023/04/03 08:15:50;;;;;;;0.70;0.70;;;;;5.50;96676.00;;;;5073223;28;20724;-65
2023/04/03 08:18:21;;;;;;;0.60;0.60;;;;;5.80;96669.00;;;;5073299;28;20566;-65
2023/04/03 08:20:48;;;;;;;0.80;0.80;;;;;6.00;96676.00;;;;5073747;28;20215;-65
2023/04/03 08:23:16;;;;;;;1.13;1.13;;;;;5.80;96681.00;;;;5073359;28;20243;-64
2023/04/03 08:25:44;;;;;;;0.77;0.77;;;;;5.80;96682.00;;;;5072042;28;20201;-65
2023/04/03 08:28:14;;;;;;;1.37;1.27;;;;;6.10;96689.00;;;;5073361;28;20235;-65
2023/04/03 08:30:42;;;;;;;1.00;1.00;;;;;6.40;96693.00;;;;5073272;28;20704;-65
2023/04/03 08:33:10;;;;;;;1.00;1.00;;;;;6.40;96685.00;;;;5073198;28;20230;-64
2023/04/03 08:35:41;;;;;;;1.10;1.10;;;;;6.80;96690.00;;;;5072890;28;20202;-65
2023/04/03 08:38:08;;;;;;;3.27;1.70;;;;;6.80;96686.00;;;;5073183;28;20742;-65
2023/04/03 08:40:36;;;;;;;1.00;1.00;;;;;6.80;96692.00;;;;5071816;28;20555;-65
2023/04/03 08:43:20;;;;;;;1.23;1.23;;;;;6.70;96701.00;;;;5072642;28;20704;-65
2023/04/03 08:45:52;;;;;;;0.90;0.90;;;;;6.60;96687.00;;;;5073215;28;20201;-65
2023/04/03 08:48:24;;;;;;;0.80;0.80;;;;;6.60;96697.00;;;;5073428;28;20202;-65
2023/04/03 08:50:58;;;;;;;0.80;0.80;;;;;6.50;96702.00;;;;5072528;28;20203;-65
2023/04/03 08:53:32;;;;;;;0.90;0.90;;;;;6.50;96703.00;;;;5072904;28;20227;-65
2023/04/03 08:56:02;;;;;;;0.73;0.73;;;;;6.30;96702.00;;;;5072916;28;20198;-65
2023/04/03 08:58:33;;;;;;;0.80;0.80;;;;;6.40;96695.00;;;;5073081;28;20436;-65
2023/04/03 09:01:03;;;;;;;0.90;0.90;;;;;6.40;96706.00;;;;5072916;28;20194;-65
2023/04/03 09:03:33;;;;;;;0.80;0.80;;;;;6.40;96695.00;;;;5071178;28;20225;-65
2023/04/03 09:06:04;;;;;;;0.70;0.70;;;;;6.40;96695.00;;;;5072700;28;20203;-65
2023/04/03 09:08:33;;;;;;;0.83;0.83;;;;;6.30;96696.00;;;;5072874;28;20187;-65
2023/04/03 09:11:10;;;;;;;0.90;0.90;;;;;6.80;96697.00;;;;5072597;28;20193;-64
2023/04/03 09:13:47;;;;;;;1.43;1.33;;;;;7.10;96700.00;;;;5072792;28;20220;-65
2023/04/03 09:16:29;;;;;;;0.73;0.73;;;;;7.00;96700.00;;;;5072191;28;20201;-65
2023/04/03 09:19:05;;;;;;;0.83;0.83;;;;;7.10;96702.00;;;;5071559;28;20208;-65
2023/04/03 09:21:38;;;;;;;2.03;1.83;;;;;7.00;96699.00;;;;5071093;28;20752;-66
2023/04/03 09:24:08;;;;;;;0.60;0.60;;;;;6.80;96704.00;;;;5072560;28;20257;-65
2023/04/03 09:26:43;;;;;;;0.87;0.87;;;;;6.70;96707.00;;;;5068720;28;20256;-65
2023/04/03 09:29:16;;;;;;;1.00;1.00;;;;;6.60;96703.00;;;;5072768;28;20311;-65
2023/04/03 09:31:45;;;;;;;0.80;0.80;;;;;6.70;96711.00;;;;5071896;28;20643;-65
2023/04/03 09:34:20;;;;;;;1.30;1.20;;;;;6.40;96710.00;;;;5072515;28;20253;-66
2023/04/03 09:36:49;;;;;;;0.87;0.87;;;;;6.40;96709.00;;;;5071254;28;20185;-65
2023/04/03 09:39:20;;;;;;;0.70;0.70;;;;;6.20;96700.00;;;;5071976;28;20712;-65
2023/04/03 09:41:59;;;;;;;0.77;0.77;;;;;6.40;96705.00;;;;5072059;28;20291;-65
2023/04/03 09:44:30;;;;;;;0.83;0.83;;;;;6.20;96701.00;;;;5072395;28;20276;-65
2023/04/03 09:46:58;;;;;;;1.07;1.07;;;;;6.20;96702.00;;;;5071596;28;20195;-65
2023/04/03 09:49:25;;;;;;;0.87;0.87;;;;;6.20;96701.00;;;;5072241;28;20192;-65
2023/04/03 09:51:53;;;;;;;0.90;0.90;;;;;6.50;96701.00;;;;5070185;28;20199;-65
2023/04/03 09:54:42;;;;;;;1.00;1.00;;;;;6.60;96689.00;;;;5072185;28;20674;-65
2023/04/03 09:57:13;;;;;;;2.63;1.33;;;;;6.60;96701.00;;;;5068261;28;20634;-65
2023/04/03 09:59:47;;;;;;;0.70;0.70;;;;;6.70;96701.00;;;;5072039;28;20645;-65
2023/04/03 10:02:35;;;;;;;0.90;0.90;;;;;6.30;96718.00;;;;5071242;28;20223;-65
2023/04/03 10:05:03;;;;;;;0.60;0.60;;;;;6.30;96703.00;;;;5068421;28;20230;-66
2023/04/03 10:07:35;;;;;;;1.17;1.17;;;;;6.10;96703.00;;;;5070515;28;20210;-65
2023/04/03 10:10:17;;;;;;;0.60;0.60;;;;;6.10;96701.00;;;;5071059;28;20311;-66
2023/04/03 10:12:45;;;;;;;0.83;0.83;;;;;6.20;96700.00;;;;5070918;28;20225;-65
2023/04/03 10:15:18;;;;;;;0.60;0.60;;;;;6.10;96700.00;;;;5071376;28;20200;-65
2023/04/03 10:17:54;;;;;;;0.77;0.77;;;;;6.20;96692.00;;;;5071610;28;20218;-65
2023/04/03 10:20:30;;;;;;;0.77;0.77;;;;;6.30;96689.00;;;;5071397;28;20203;-65
2023/04/03 10:23:07;;;;;;;1.27;1.17;;;;;6.20;96687.00;;;;5071091;28;20225;-65
2023/04/03 10:25:41;;;;;;;1.10;1.10;;;;;6.00;96694.00;;;;5070835;28;20238;-66
2023/04/03 10:28:17;;;;;;;1.07;1.07;;;;;6.00;96685.00;;;;5070736;28;20192;-64
2023/04/03 10:30:54;;;;;;;0.70;0.70;;;;;6.20;96681.00;;;;5070691;28;20193;-64
2023/04/03 10:33:35;;;;;;;0.93;0.93;;;;;6.30;96674.00;;;;5071357;28;20219;-62
2023/04/03 10:36:22;;;;;;;0.60;0.60;;;;;6.50;96678.00;;;;5070754;28;20194;-62
2023/04/03 10:38:58;;;;;;;0.70;0.70;;;;;6.60;96693.00;;;;5071285;28;20214;-61
2023/04/03 10:41:36;;;;;;;1.17;1.17;;;;;6.60;96682.00;;;;5070679;28;20321;-61
2023/04/03 10:44:16;;;;;;;1.17;1.17;;;;;6.50;96681.00;;;;5071295;28;20215;-64
2023/04/03 10:46:49;;;;;;;0.70;0.70;;;;;6.80;96684.00;;;;5070835;28;20194;-65
2023/04/03 10:49:27;;;;;;;0.70;0.70;;;;;7.00;96686.00;;;;5070888;28;20559;-66
2023/04/03 10:52:04;;;;;;;0.80;0.80;;;;;7.10;96703.00;;;;5070982;28;20191;-65
2023/04/03 10:54:37;;;;;;;0.53;0.53;;;;;7.00;96689.00;;;;5068843;28;20205;-66
2023/04/03 10:57:08;;;;;;;1.23;1.17;;;;;6.80;96689.00;;;;5070917;28;20190;-65
2023/04/03 10:59:41;;;;;;;0.77;0.77;;;;;7.00;96703.00;;;;5070715;28;20200;-66
2023/04/03 11:02:20;;;;;;;0.97;0.97;;;;;7.00;96698.00;;;;5070530;28;20225;-65
2023/04/03 11:04:53;;;;;;;0.60;0.60;;;;;7.00;96698.00;;;;5070833;28;20191;-66
2023/04/03 11:07:23;;;;;;;0.80;0.80;;;;;7.10;96682.00;;;;5070128;28;20224;-65
2023/04/03 11:09:55;;;;;;;0.60;0.60;;;;;6.90;96687.00;;;;5071427;28;20201;-65
2023/04/03 11:12:27;;;;;;;0.70;0.70;;;;;6.80;96701.00;;;;5068768;28;20228;-66
2023/04/03 11:14:57;;;;;;;0.70;0.70;;;;;6.90;96694.00;;;;5070985;28;20658;-65
2023/04/03 11:17:33;;;;;;;0.80;0.80;;;;;6.30;96694.00;;;;5069981;28;20719;-66
2023/04/03 11:20:07;;;;;;;0.60;0.60;;;;;6.30;96688.00;;;;5070607;28;20214;-65
2023/04/03 11:22:37;;;;;;;0.80;0.80;;;;;6.40;96698.00;;;;5070542;28;20280;-64
2023/04/03 11:25:16;;;;;;;0.70;0.70;;;;;6.30;96686.00;;;;5070382;28;20202;-66
2023/04/03 11:27:47;;;;;;;0.80;0.80;;;;;6.50;96686.00;;;;5070248;28;20227;-66
2023/04/03 11:30:19;;;;;;;0.60;0.60;;;;;6.30;96686.00;;;;5070635;28;20197;-66
2023/04/03 11:33:07;;;;;;;0.70;0.70;;;;;6.80;96688.00;;;;5070487;28;20280;-65
2023/04/03 11:35:35;;;;;;;1.47;1.47;;;;;7.00;96687.00;;;;5070890;28;20218;-65
2023/04/03 11:38:06;;;;;;;0.50;0.50;;;;;7.00;96685.00;;;;5071030;28;20529;-66
2023/04/03 11:40:36;;;;;;;1.20;1.10;;;;;6.90;96689.00;;;;5070453;28;20323;-65
2023/04/03 11:43:20;;;;;;;0.70;0.70;;;;;6.80;96693.00;;;;5070395;28;20219;-65
2023/04/03 11:45:54;;;;;;;0.70;0.70;;;;;6.60;96693.00;;;;5070468;28;20187;-65
2023/04/03 11:48:50;;;;;;;1.00;1.00;;;;;6.40;96695.00;;;;5070373;28;20188;-65
2023/04/03 11:51:41;;;;;;;0.70;0.70;;;;;6.30;96688.00;;;;5069190;28;20208;-65
2023/04/03 11:54:47;;;;;;;0.93;0.93;;;;;6.50;96678.00;;;;5070530;28;20234;-65
2023/04/03 11:57:44;;;;;;;1.47;1.03;;;;;6.60;96674.00;;;;5069774;28;20204;-65
2023/04/03 12:00:49;;;;;;;0.80;0.80;;;;;6.80;96680.00;;;;5070609;28;20217;-65
2023/04/03 12:03:52;;;;;;;0.60;0.60;;;;;7.00;96662.00;;;;5073998;28;20219;-65
2023/04/03 12:06:54;;;;;;;0.80;0.80;;;;;6.90;96655.00;;;;5073895;28;20689;-65
2023/04/03 12:09:30;;;;;;;0.80;0.80;;;;;6.80;96664.00;;;;5074428;28;20191;-66
2023/04/03 12:12:01;;;;;;;0.53;0.53;;;;;7.00;96669.00;;;;5073478;28;20277;-65
2023/04/03 12:14:29;;;;;;;1.23;1.13;;;;;6.50;96657.00;;;;5074209;28;20191;-65
2023/04/03 12:16:58;;;;;;;0.90;0.90;;;;;6.20;96660.00;;;;5073211;28;20191;-65
2023/04/03 12:19:40;;;;;;;0.90;0.90;;;;;6.50;96663.00;;;;5073951;28;20218;-66
2023/04/03 12:22:19;;;;;;;0.80;0.80;;;;;6.60;96654.00;;;;5073089;28;20191;-66
2023/04/03 12:24:49;;;;;;;0.70;0.70;;;;;6.90;96656.00;;;;5073809;28;20699;-66
2023/04/03 12:27:39;;;;;;;0.70;0.70;;;;;7.00;96660.00;;;;5071645;28;20215;-65
2023/04/03 12:30:17;;;;;;;0.90;0.90;;;;;6.80;96653.00;;;;5073945;28;20199;-65
2023/04/03 12:33:05;;;;;;;0.90;0.90;;;;;6.50;96664.00;;;;5073178;28;20646;-65
2023/04/03 12:35:37;;;;;;;0.90;0.90;;;;;6.30;96662.00;;;;5072541;28;20184;-65
2023/04/03 12:38:45;;;;;;;1.50;0.80;;;;;6.30;96658.00;;;;5073409;28;20277;-65
2023/04/03 12:41:37;;;;;;;1.00;1.00;;;;;6.30;96659.00;;;;5031001;28;20322;-65
2023/04/03 12:44:32;;;;;;;0.67;0.67;;;;;6.30;96664.00;;;;5067225;28;20223;-66
2023/04/03 12:47:02;;;;;;;0.60;0.60;;;;;6.40;96659.00;;;;5073188;28;20198;-65